Time;durP1;ratioP1;P1;durP2;ratioP2;P2;SDS_P1;SDS_P2;PMS_P1;PMS_P2;Temp;Humidity;BMP_temperature;BMP_pressure;BME280_temperature;BME280_humidity;BME280_pressure;Samples;Min_cycle;Max_cycle;Signal;HPM_P1;HPM_P2
2022/01/27 00:05:03;;;;;;;19.70;7.40;;;-0.40;99.90;;;;;;6251980;22;20016;-87
2022/01/27 00:07:30;;;;;;;29.57;7.93;;;-0.40;99.90;;;;;;6217279;23;20147;-87
2022/01/27 00:12:42;;;;;;;25.67;8.03;;;-0.50;99.90;;;;;;6243953;23;20015;-87
2022/01/27 00:15:12;;;;;;;23.93;7.87;;;-0.50;99.90;;;;;;6216226;23;20347;-86
2022/01/27 00:17:43;;;;;;;23.53;8.10;;;-0.50;99.90;;;;;;6216551;23;19996;-87
2022/01/27 00:20:10;;;;;;;22.87;7.40;;;-0.60;99.90;;;;;;6215039;23;20004;-87
2022/01/27 00:22:37;;;;;;;27.47;8.03;;;-0.60;99.90;;;;;;6243137;23;20027;-87
2022/01/27 00:25:05;;;;;;;24.97;8.27;;;-0.60;99.90;;;;;;6242756;22;20004;-87
2022/01/27 00:27:30;;;;;;;23.97;8.50;;;-0.60;99.90;;;;;;6243155;23;20042;-87
2022/01/27 00:29:56;;;;;;;22.80;7.70;;;-0.60;99.90;;;;;;6242682;23;20423;-87
2022/01/27 00:32:22;;;;;;;22.03;7.53;;;-0.60;99.90;;;;;;6241535;23;20011;-87
2022/01/27 00:34:47;;;;;;;23.67;7.87;;;-0.60;99.90;;;;;;6216997;22;20032;-87
2022/01/27 00:37:13;;;;;;;23.23;9.10;;;-0.50;99.90;;;;;;6245176;23;20008;-87
2022/01/27 00:39:38;;;;;;;27.77;8.80;;;-0.50;99.90;;;;;;6243723;23;20000;-87
2022/01/27 00:42:04;;;;;;;24.67;8.33;;;-0.50;99.90;;;;;;6243611;23;20446;-87
2022/01/27 00:44:30;;;;;;;30.30;8.87;;;-0.50;99.90;;;;;;6217863;22;20062;-87
2022/01/27 00:46:56;;;;;;;27.27;8.03;;;-0.50;99.90;;;;;;6217574;23;20091;-87
2022/01/27 00:49:21;;;;;;;27.53;8.80;;;-0.50;99.90;;;;;;6242987;23;20004;-87
2022/01/27 00:51:47;;;;;;;30.17;9.77;;;-0.60;99.90;;;;;;6216623;23;20066;-87
2022/01/27 00:54:21;;;;;;;24.90;8.77;;;-0.60;99.90;;;;;;6216717;23;20000;-87
2022/01/27 01:02:07;;;;;;;27.90;9.50;;;-0.60;99.90;;;;;;6243372;23;20008;-87
2022/01/27 01:04:36;;;;;;;24.67;8.10;;;-0.60;99.90;;;;;;6216284;22;20012;-87
2022/01/27 01:07:03;;;;;;;26.77;8.63;;;-0.60;99.90;;;;;;6217061;23;20064;-87
2022/01/27 01:13:02;;;;;;;22.67;8.03;;;-0.50;99.90;;;;;;6243996;23;20012;-87
2022/01/27 01:15:10;;;;;;;29.07;9.23;;;-0.50;99.90;;;;;;6241722;22;20170;-88
2022/01/27 01:31:28;;;;;;;24.27;8.83;;;-0.50;99.90;;;;;;6248477;23;20068;-88
2022/01/27 01:34:10;;;;;;;27.23;9.40;;;-0.60;99.90;;;;;;6221790;23;20000;-88
2022/01/27 01:36:37;;;;;;;29.77;9.53;;;-0.60;99.90;;;;;;6223186;23;20036;-88
2022/01/27 01:39:05;;;;;;;24.03;8.40;;;-0.60;99.90;;;;;;6221634;23;20008;-88
2022/01/27 01:41:31;;;;;;;27.37;8.90;;;-0.60;99.90;;;;;;6222608;23;20038;-88
2022/01/27 01:43:57;;;;;;;27.50;8.30;;;-0.60;99.90;;;;;;6222462;23;20015;-88
2022/01/27 01:46:30;;;;;;;33.93;9.60;;;-0.60;99.90;;;;;;6221633;23;20008;-88
2022/01/27 01:48:56;;;;;;;34.47;9.47;;;-0.60;99.90;;;;;;6221489;23;20004;-89
2022/01/27 01:51:29;;;;;;;30.67;8.63;;;-0.70;99.90;;;;;;6221168;23;20007;-89
2022/01/27 01:53:55;;;;;;;;;;;-0.70;99.90;;;;;;6219956;23;20001;-88
2022/01/27 01:56:24;;;;;;;30.37;8.47;;;-0.70;99.90;;;;;;6220072;23;19906;-88
2022/01/27 01:58:52;;;;;;;29.80;9.77;;;-0.70;99.90;;;;;;6243107;22;20068;-89
2022/01/27 02:01:20;;;;;;;33.00;9.40;;;-0.70;99.90;;;;;;6223900;23;20058;-88
2022/01/27 02:03:49;;;;;;;28.07;7.90;;;-0.70;99.90;;;;;;6224937;23;20012;-88
2022/01/27 02:06:19;;;;;;;32.73;8.53;;;-0.70;99.90;;;;;;6224364;23;20042;-88
2022/01/27 02:09:08;;;;;;;27.57;9.00;;;-0.70;99.90;;;;;;6224513;23;20342;-88
2022/01/27 02:20:05;;;;;;;33.80;9.00;;;-0.70;99.90;;;;;;6251734;23;20022;-88
2022/01/27 02:22:31;;;;;;;28.67;8.77;;;-0.60;99.90;;;;;;6251412;23;20502;-89
2022/01/27 02:25:02;;;;;;;26.53;8.97;;;-0.60;99.90;;;;;;6224884;23;20035;-89
2022/01/27 02:27:29;;;;;;;27.40;8.87;;;-0.60;99.90;;;;;;6226088;22;20000;-89
2022/01/27 02:29:57;;;;;;;28.27;8.37;;;-0.60;99.90;;;;;;6225426;23;20227;-88
2022/01/27 02:32:24;;;;;;;33.43;9.33;;;-0.50;99.90;;;;;;6226048;23;20018;-88
2022/01/27 02:34:51;;;;;;;35.70;10.57;;;-0.50;99.90;;;;;;6224749;23;20004;-88
2022/01/27 02:37:17;;;;;;;34.73;9.73;;;-0.50;99.90;;;;;;6253734;23;20028;-89
2022/01/27 02:39:43;;;;;;;33.00;9.77;;;-0.50;99.90;;;;;;6261423;22;19996;-89
2022/01/27 02:42:29;;;;;;;33.83;10.87;;;-0.50;99.90;;;;;;6234359;23;20030;-88
2022/01/27 02:44:57;;;;;;;32.90;9.50;;;-0.50;99.90;;;;;;6255261;23;20000;-89
2022/01/27 02:47:26;;;;;;;34.47;10.03;;;-0.50;99.90;;;;;;6252049;23;19997;-89
2022/01/27 02:49:52;;;;;;;28.33;8.90;;;-0.50;99.90;;;;;;6224700;23;20000;-89
2022/01/27 02:52:18;;;;;;;33.10;9.43;;;-0.50;99.90;;;;;;6252841;23;20004;-88
2022/01/27 02:54:47;;;;;;;31.93;9.63;;;-0.50;99.90;;;;;;6225774;23;19996;-88
2022/01/27 02:57:15;;;;;;;32.40;9.67;;;-0.50;99.90;;;;;;6222483;23;20087;-88
2022/01/27 02:59:41;;;;;;;30.03;8.97;;;-0.50;99.90;;;;;;6224285;23;20000;-88
2022/01/27 03:02:07;;;;;;;28.77;8.73;;;-0.50;99.90;;;;;;6251059;23;20034;-88
2022/01/27 03:04:34;;;;;;;30.97;8.47;;;-0.50;99.90;;;;;;6225461;23;20035;-88
2022/01/27 03:07:04;;;;;;;38.97;9.73;;;-0.60;99.90;;;;;;6251271;23;20008;-88
2022/01/27 03:09:34;;;;;;;31.43;9.47;;;-0.50;99.90;;;;;;6224822;23;20004;-88
2022/01/27 03:12:08;;;;;;;29.03;9.90;;;-0.50;99.90;;;;;;6224063;23;20126;-87
2022/01/27 03:14:35;;;;;;;33.83;10.20;;;-0.50;99.90;;;;;;6251861;23;20330;-88
2022/01/27 03:17:11;;;;;;;29.57;9.30;;;-0.50;99.90;;;;;;6223274;23;20275;-88
2022/01/27 03:19:38;;;;;;;35.23;9.93;;;-0.50;99.90;;;;;;6223754;23;20008;-89
2022/01/27 03:22:08;;;;;;;36.30;10.87;;;-0.50;99.90;;;;;;6224379;23;20000;-89
2022/01/27 03:24:35;;;;;;;28.27;8.90;;;-0.50;99.90;;;;;;6225052;23;20000;-88
2022/01/27 03:27:01;;;;;;;28.17;9.90;;;-0.50;99.90;;;;;;6250793;23;20058;-88
2022/01/27 03:29:30;;;;;;;24.60;9.20;;;-0.50;99.90;;;;;;6225176;23;20003;-88
2022/01/27 03:31:59;;;;;;;25.10;8.23;;;-0.50;99.90;;;;;;6226869;23;20341;-88
2022/01/27 03:34:26;;;;;;;28.60;8.47;;;-0.50;99.90;;;;;;6225802;23;19996;-88
2022/01/27 03:36:55;;;;;;;24.17;8.40;;;-0.60;99.90;;;;;;6225184;23;20000;-88
2022/01/27 03:39:22;;;;;;;26.83;9.67;;;-0.50;99.90;;;;;;6224859;23;20058;-88
2022/01/27 03:41:56;;;;;;;25.23;8.63;;;-0.60;99.90;;;;;;6225345;23;20004;-89
2022/01/27 03:44:22;;;;;;;23.87;8.57;;;-0.60;99.90;;;;;;6227323;23;20008;-88
2022/01/27 03:46:55;;;;;;;27.93;8.50;;;-0.60;99.90;;;;;;6227053;23;20004;-89
2022/01/27 03:49:24;;;;;;;31.00;9.37;;;-0.70;99.90;;;;;;6253629;22;20020;-88
2022/01/27 03:51:50;;;;;;;27.50;8.80;;;-0.60;99.90;;;;;;6227262;23;20023;-88
2022/01/27 03:54:18;;;;;;;31.63;9.30;;;-0.60;99.90;;;;;;6254156;23;20024;-88
2022/01/27 03:56:47;;;;;;;27.00;8.67;;;-0.60;99.90;;;;;;6226922;23;20084;-87
2022/01/27 03:59:15;;;;;;;22.57;8.20;;;-0.60;99.90;;;;;;6221527;23;20384;-88
2022/01/27 04:01:41;;;;;;;27.07;9.07;;;-0.60;99.90;;;;;;6224409;23;20004;-87
2022/01/27 04:04:10;;;;;;;29.20;7.97;;;-0.50;99.90;;;;;;6225124;23;20015;-88
2022/01/27 04:06:40;;;;;;;23.73;7.97;;;-0.60;99.90;;;;;;6226317;23;20004;-89
2022/01/27 04:09:13;;;;;;;28.00;9.17;;;-0.60;99.90;;;;;;6224284;23;20447;-89
2022/01/27 04:11:40;;;;;;;22.97;8.50;;;-0.60;99.90;;;;;;6225463;23;20015;-87
2022/01/27 04:14:06;;;;;;;36.27;11.17;;;-0.60;99.90;;;;;;6227125;23;20065;-87
2022/01/27 04:16:32;;;;;;;22.80;7.93;;;-0.60;99.90;;;;;;6226989;23;20082;-88
2022/01/27 04:18:58;;;;;;;26.47;7.77;;;-0.60;99.90;;;;;;6253914;22;20011;-88
2022/01/27 04:21:24;;;;;;;26.67;8.67;;;-0.70;99.90;;;;;;6227345;23;20103;-88
2022/01/27 04:23:50;;;;;;;27.13;9.07;;;-0.70;99.90;;;;;;6253603;23;20015;-87
2022/01/27 04:26:25;;;;;;;31.23;9.57;;;-0.70;99.90;;;;;;6226945;23;20014;-87
2022/01/27 04:28:54;;;;;;;23.87;8.00;;;-0.70;99.90;;;;;;6228238;23;20469;-89
2022/01/27 04:31:25;;;;;;;25.00;8.90;;;-0.70;99.90;;;;;;6229499;23;20022;-88
2022/01/27 04:33:53;;;;;;;25.80;8.93;;;-0.70;99.90;;;;;;6230816;23;20000;-88
2022/01/27 04:36:41;;;;;;;27.83;9.80;;;-0.70;99.90;;;;;;6230881;23;20047;-88
2022/01/27 04:42:05;;;;;;;22.73;9.20;;;-0.70;99.90;;;;;;6255027;23;20004;-87
2022/01/27 04:44:46;;;;;;;28.27;9.97;;;-0.70;99.90;;;;;;6226825;23;20063;-88
2022/01/27 04:47:20;;;;;;;29.87;10.23;;;-0.70;99.90;;;;;;6223871;23;20068;-88
2022/01/27 04:49:47;;;;;;;33.43;10.70;;;-0.70;99.90;;;;;;6224105;23;20126;-88
2022/01/27 04:52:16;;;;;;;29.90;9.97;;;-0.80;99.90;;;;;;6225839;23;20012;-89
2022/01/27 04:55:00;;;;;;;25.80;10.37;;;-0.80;99.90;;;;;;6225311;23;20000;-88
2022/01/27 04:57:28;;;;;;;33.70;10.47;;;-0.80;99.90;;;;;;6251378;22;20000;-88
2022/01/27 04:59:54;;;;;;;28.07;10.57;;;-0.80;99.90;;;;;;6224104;23;19996;-89
2022/01/27 05:05:05;;;;;;;25.57;10.27;;;-0.80;99.90;;;;;;6261215;23;20099;-88
2022/01/27 05:07:40;;;;;;;27.50;10.13;;;-0.80;99.90;;;;;;6253894;22;19996;-87
2022/01/27 05:10:21;;;;;;;24.33;9.73;;;-0.70;99.90;;;;;;6226091;23;20004;-88
2022/01/27 05:12:50;;;;;;;31.03;10.53;;;-0.80;99.90;;;;;;6224486;23;20083;-88
2022/01/27 05:15:24;;;;;;;29.33;10.40;;;-0.90;99.90;;;;;;6227299;23;20086;-89
2022/01/27 05:17:53;;;;;;;31.37;10.57;;;-0.90;99.90;;;;;;6254618;22;19996;-89
2022/01/27 05:20:18;;;;;;;27.50;10.20;;;-0.90;99.90;;;;;;6227403;23;20290;-88
2022/01/27 05:22:47;;;;;;;29.87;10.23;;;-0.90;99.90;;;;;;6232372;23;20004;-87
2022/01/27 05:25:13;;;;;;;27.00;10.50;;;-0.80;99.90;;;;;;6232261;23;20060;-88
2022/01/27 05:27:41;;;;;;;27.50;10.37;;;-0.90;99.90;;;;;;6258157;22;20005;-89
2022/01/27 05:30:09;;;;;;;30.83;10.60;;;-0.90;99.90;;;;;;6226609;23;20059;-88
2022/01/27 05:32:38;;;;;;;26.43;9.57;;;-1.00;99.90;;;;;;6223088;23;20431;-88
2022/01/27 05:35:04;;;;;;;25.03;8.27;;;-0.90;99.90;;;;;;6247678;23;20730;-88
2022/01/27 05:37:30;;;;;;;27.07;10.77;;;-1.00;99.90;;;;;;6221360;22;20007;-89
2022/01/27 05:39:55;;;;;;;30.23;10.80;;;-1.00;99.90;;;;;;6221258;23;20008;-89
2022/01/27 05:42:21;;;;;;;23.50;9.07;;;-1.10;99.90;;;;;;6222393;23;20429;-89
2022/01/27 05:44:54;;;;;;;23.47;8.77;;;-1.00;99.90;;;;;;6221731;23;20395;-88
2022/01/27 05:47:23;;;;;;;24.33;8.73;;;-1.10;99.90;;;;;;6248297;23;20472;-88
2022/01/27 05:49:49;;;;;;;28.20;9.60;;;-1.10;99.90;;;;;;6247956;23;20008;-88
2022/01/27 05:52:16;;;;;;;24.57;9.27;;;-1.10;99.90;;;;;;6249415;23;20004;-89
2022/01/27 05:54:47;;;;;;;26.70;9.17;;;-1.10;99.90;;;;;;6220587;23;20000;-87
2022/01/27 05:57:13;;;;;;;27.60;10.27;;;-1.00;99.90;;;;;;6219553;23;20135;-89
2022/01/27 05:59:40;;;;;;;29.17;10.10;;;-0.90;99.90;;;;;;6248701;22;20047;-88
2022/01/27 06:02:06;;;;;;;25.33;9.67;;;-1.00;99.90;;;;;;6220408;23;20008;-88
2022/01/27 06:04:32;;;;;;;25.00;9.37;;;-0.90;99.90;;;;;;6220242;23;20817;-88
2022/01/27 06:06:57;;;;;;;30.37;10.80;;;-0.90;99.90;;;;;;6215860;23;20035;-87
2022/01/27 06:09:23;;;;;;;29.03;10.23;;;-0.90;99.90;;;;;;6214439;23;20054;-88
2022/01/27 06:11:50;;;;;;;29.93;10.43;;;-0.90;99.90;;;;;;6219758;23;20005;-89
2022/01/27 06:14:19;;;;;;;28.20;11.20;;;-0.80;99.90;;;;;;6216717;23;20441;-87
2022/01/27 06:16:45;;;;;;;31.07;10.87;;;-0.80;99.90;;;;;;6242991;23;20085;-87
2022/01/27 06:19:12;;;;;;;28.87;10.50;;;-0.80;99.90;;;;;;6215176;23;20008;-87
2022/01/27 06:21:39;;;;;;;28.03;9.27;;;-0.80;99.90;;;;;;6215205;23;20069;-88
2022/01/27 06:24:14;;;;;;;27.27;10.27;;;-0.80;99.90;;;;;;6218775;23;20012;-87
2022/01/27 06:26:40;;;;;;;26.93;9.80;;;-0.70;99.90;;;;;;6220293;23;20012;-89
2022/01/27 06:29:05;;;;;;;30.87;10.83;;;-0.80;99.90;;;;;;6246874;22;20492;-88
2022/01/27 06:31:31;;;;;;;27.87;10.23;;;-0.70;99.90;;;;;;6246284;23;20004;-88
2022/01/27 06:33:57;;;;;;;28.90;10.83;;;-0.70;99.90;;;;;;6246814;23;19996;-89
2022/01/27 06:36:22;;;;;;;27.77;9.53;;;-0.70;99.90;;;;;;6220019;23;20005;-89
2022/01/27 06:38:48;;;;;;;26.83;9.03;;;-0.80;99.90;;;;;;6219571;23;20008;-89
2022/01/27 06:41:14;;;;;;;25.70;9.70;;;-0.70;99.90;;;;;;6220239;23;20000;-87
2022/01/27 06:43:40;;;;;;;31.63;9.87;;;-0.80;99.90;;;;;;6220458;23;20094;-87
2022/01/27 06:46:06;;;;;;;33.23;10.77;;;-0.70;99.90;;;;;;6219828;23;20345;-88
2022/01/27 06:48:34;;;;;;;28.13;10.77;;;-0.80;99.90;;;;;;6219893;23;20015;-89
2022/01/27 06:51:04;;;;;;;26.60;10.80;;;-0.80;99.90;;;;;;6220862;23;20042;-88
2022/01/27 06:53:29;;;;;;;24.40;8.23;;;-0.80;99.90;;;;;;6221333;23;20004;-89
2022/01/27 06:55:58;;;;;;;25.37;9.53;;;-0.70;99.90;;;;;;6221297;23;20004;-89
2022/01/27 06:58:24;;;;;;;22.30;9.37;;;-0.70;99.90;;;;;;6221330;23;20083;-89
2022/01/27 07:01:00;;;;;;;23.67;9.23;;;-0.80;99.90;;;;;;6221040;23;20110;-89
2022/01/27 07:03:26;;;;;;;24.57;9.30;;;-0.80;99.90;;;;;;6223562;23;20004;-88
2022/01/27 07:05:54;;;;;;;22.50;9.23;;;-0.80;99.90;;;;;;6223739;23;20015;-88
2022/01/27 07:08:23;;;;;;;23.47;9.27;;;-0.80;99.90;;;;;;6219817;23;20103;-88
2022/01/27 07:10:48;;;;;;;23.80;9.07;;;-0.80;99.90;;;;;;6220506;23;20079;-88
2022/01/27 07:13:26;;;;;;;24.20;8.63;;;-0.80;99.90;;;;;;6214921;23;20031;-89
2022/01/27 07:15:57;;;;;;;25.57;9.37;;;-0.80;99.90;;;;;;6222001;23;20110;-88
2022/01/27 07:18:23;;;;;;;21.57;8.40;;;-0.80;99.90;;;;;;6211271;22;20016;-85
2022/01/27 07:20:49;;;;;;;25.60;9.40;;;-0.80;99.90;;;;;;6186054;23;20087;-85
2022/01/27 07:23:15;;;;;;;28.23;10.27;;;-0.80;99.90;;;;;;6214223;23;20035;-85
2022/01/27 07:25:41;;;;;;;26.77;9.93;;;-0.70;99.90;;;;;;6214142;23;20015;-86
2022/01/27 07:28:06;;;;;;;25.57;9.87;;;-0.70;99.90;;;;;;6213405;23;20020;-86
2022/01/27 07:30:32;;;;;;;25.23;9.70;;;-0.70;99.90;;;;;;6211953;23;20636;-86
2022/01/27 07:32:58;;;;;;;22.10;9.27;;;-0.70;99.90;;;;;;6214324;23;20646;-86
2022/01/27 07:35:23;;;;;;;24.87;8.33;;;-0.70;99.90;;;;;;6211221;23;20011;-86
2022/01/27 07:37:49;;;;;;;22.67;9.13;;;-0.70;99.90;;;;;;6212618;23;20001;-86
2022/01/27 07:40:14;;;;;;;23.77;8.70;;;-0.70;99.90;;;;;;6211982;23;20004;-86
2022/01/27 07:42:40;;;;;;;27.20;9.00;;;-0.70;99.90;;;;;;6212076;23;20435;-86
2022/01/27 07:45:07;;;;;;;22.50;8.90;;;-0.80;99.90;;;;;;6212711;23;20008;-86
2022/01/27 07:47:34;;;;;;;17.17;7.07;;;-0.70;99.90;;;;;;6187294;23;20439;-86
2022/01/27 07:49:59;;;;;;;24.47;8.30;;;-0.70;99.90;;;;;;6213031;23;20079;-86
2022/01/27 07:52:25;;;;;;;23.83;7.50;;;-0.70;99.90;;;;;;6213303;23;20038;-86
2022/01/27 07:54:50;;;;;;;18.97;7.33;;;-0.70;99.90;;;;;;6212609;23;20047;-86
2022/01/27 07:57:16;;;;;;;20.33;7.53;;;-0.70;99.90;;;;;;6212031;23;20097;-86
2022/01/27 07:59:42;;;;;;;17.20;6.97;;;-0.70;99.90;;;;;;6186727;23;20004;-88
2022/01/27 08:02:08;;;;;;;16.37;6.43;;;-0.70;99.90;;;;;;6214020;23;20004;-88
2022/01/27 08:04:33;;;;;;;17.70;7.00;;;-0.70;99.90;;;;;;6212274;23;20055;-87
2022/01/27 08:07:00;;;;;;;21.43;7.73;;;-0.70;99.90;;;;;;6212527;23;20000;-88
2022/01/27 08:09:27;;;;;;;19.20;7.13;;;-0.70;99.90;;;;;;6211557;23;20350;-87
2022/01/27 08:11:52;;;;;;;19.40;6.90;;;-0.70;99.90;;;;;;6215851;23;20012;-88
2022/01/27 08:14:18;;;;;;;21.50;7.43;;;-0.70;99.90;;;;;;6214671;23;20001;-88
2022/01/27 08:16:44;;;;;;;22.53;7.90;;;-0.80;99.90;;;;;;6218126;23;20001;-88
2022/01/27 08:19:09;;;;;;;22.53;7.63;;;-0.80;99.90;;;;;;6201724;23;20047;-88
2022/01/27 08:21:35;;;;;;;21.90;7.13;;;-0.80;99.90;;;;;;6243613;23;20015;-88
2022/01/27 08:24:01;;;;;;;23.97;7.93;;;-0.70;99.90;;;;;;6215263;23;20011;-88
2022/01/27 08:26:46;;;;;;;26.53;7.77;;;-0.70;99.90;;;;;;6209085;23;20490;-88
2022/01/27 08:29:19;;;;;;;18.50;7.47;;;-0.70;99.90;;;;;;6212013;23;20444;-87
2022/01/27 08:34:41;;;;;;;28.27;8.37;;;-0.70;99.90;;;;;;6213608;23;20000;-88
2022/01/27 08:37:13;;;;;;;26.57;8.03;;;-0.70;99.90;;;;;;6212455;23;20005;-88
2022/01/27 08:39:40;;;;;;;24.08;7.10;;;-0.70;99.90;;;;;;6237024;23;20005;-88
2022/01/27 08:42:07;;;;;;;21.73;7.53;;;-0.70;99.90;;;;;;6211282;23;20004;-88
2022/01/27 08:44:34;;;;;;;23.13;8.37;;;-0.80;99.90;;;;;;6211889;23;20012;-89
2022/01/27 08:46:59;;;;;;;26.50;8.33;;;-0.80;99.90;;;;;;6212076;23;20005;-88
2022/01/27 08:49:26;;;;;;;20.27;8.07;;;-0.80;99.90;;;;;;6209165;23;20027;-88
2022/01/27 08:51:55;;;;;;;24.43;8.03;;;-0.80;99.90;;;;;;6209862;23;20339;-88
2022/01/27 08:54:21;;;;;;;21.10;6.57;;;-0.80;99.90;;;;;;6211350;23;20003;-87
2022/01/27 08:56:48;;;;;;;21.67;6.90;;;-0.70;99.90;;;;;;6210267;23;20039;-87
2022/01/27 08:59:16;;;;;;;22.60;6.70;;;-0.80;99.90;;;;;;6211513;23;20096;-88
2022/01/27 09:01:44;;;;;;;21.97;6.73;;;-0.80;99.90;;;;;;6235689;23;20009;-88
2022/01/27 09:04:12;;;;;;;21.23;7.30;;;-0.80;99.90;;;;;;6195037;23;19997;-90
2022/01/27 09:06:38;;;;;;;23.17;8.27;;;-0.80;99.90;;;;;;6236003;23;19993;-89
2022/01/27 09:09:05;;;;;;;18.97;6.57;;;-0.80;99.90;;;;;;6216996;23;20031;-88
2022/01/27 09:11:32;;;;;;;24.97;7.60;;;-0.80;99.90;;;;;;6211763;23;20059;-88
2022/01/27 09:14:00;;;;;;;18.53;6.00;;;-0.90;99.90;;;;;;6210793;23;20004;-89
2022/01/27 09:16:31;;;;;;;21.20;5.80;;;-0.80;99.90;;;;;;6237037;23;20001;-88
2022/01/27 09:18:59;;;;;;;23.30;7.33;;;-0.80;99.90;;;;;;6209204;23;20017;-88
2022/01/27 09:21:28;;;;;;;22.80;7.53;;;-0.80;99.90;;;;;;6213448;23;20008;-89
2022/01/27 09:23:54;;;;;;;20.63;6.97;;;-0.70;99.90;;;;;;6212397;23;20012;-88
2022/01/27 09:27:00;;;;;;;20.70;7.30;;;-0.70;99.90;;;;;;6213479;23;20004;-88
2022/01/27 09:29:13;;;;;;;18.98;6.32;;;-0.70;99.90;;;;;;6210079;23;20011;-88
2022/01/27 09:31:39;;;;;;;19.50;6.87;;;-0.50;99.90;;;;;;6211233;23;20008;-88
2022/01/27 09:34:05;;;;;;;17.07;5.87;;;-0.40;99.90;;;;;;6213059;23;20147;-88
2022/01/27 09:36:31;;;;;;;20.90;7.10;;;-0.30;99.90;;;;;;6211366;23;20001;-88
2022/01/27 09:38:56;;;;;;;18.50;5.17;;;-0.30;99.90;;;;;;6212850;23;20076;-88
2022/01/27 09:41:24;;;;;;;19.27;7.00;;;-0.10;99.90;;;;;;6213548;23;20071;-88
2022/01/27 09:43:53;;;;;;;17.13;5.47;;;0.00;99.90;;;;;;6213547;23;20062;-88
2022/01/27 09:46:20;;;;;;;16.53;5.80;;;0.00;99.90;;;;;;6213418;23;20004;-88
2022/01/27 09:48:49;;;;;;;17.77;6.53;;;0.00;99.90;;;;;;6230035;23;20066;-88
2022/01/27 09:51:38;;;;;;;18.03;6.67;;;0.00;99.90;;;;;;6210975;23;20035;-87
2022/01/27 09:54:05;;;;;;;12.80;5.67;;;0.00;99.90;;;;;;6231696;23;20008;-88
2022/01/27 09:56:31;;;;;;;20.83;6.87;;;0.00;99.90;;;;;;6211814;23;20020;-87
2022/01/27 09:58:57;;;;;;;18.73;6.47;;;-0.10;99.90;;;;;;6210285;23;20008;-88
2022/01/27 10:01:23;;;;;;;17.77;5.40;;;0.00;99.90;;;;;;6212762;23;20055;-87
2022/01/27 10:03:57;;;;;;;18.90;5.60;;;0.00;99.90;;;;;;6209399;23;20450;-88
2022/01/27 10:06:29;;;;;;;16.17;4.73;;;0.10;99.90;;;;;;6214676;23;19996;-88
2022/01/27 10:09:12;;;;;;;14.98;6.05;;;0.10;99.90;;;;;;6213076;23;20059;-88
2022/01/27 10:11:38;;;;;;;14.10;4.60;;;0.20;99.90;;;;;;6210731;23;20470;-88
2022/01/27 10:14:19;;;;;;;11.70;5.10;;;0.20;99.90;;;;;;6211411;23;20001;-88
2022/01/27 10:16:45;;;;;;;16.87;6.23;;;0.10;99.90;;;;;;6211433;23;20001;-88
2022/01/27 10:19:12;;;;;;;15.33;5.63;;;0.00;99.90;;;;;;6227082;23;20005;-88
2022/01/27 10:21:40;;;;;;;18.83;5.33;;;0.00;99.90;;;;;;6243345;23;20357;-88
2022/01/27 10:24:20;;;;;;;14.37;4.83;;;0.00;99.90;;;;;;6243063;23;20415;-87
2022/01/27 10:26:54;;;;;;;23.87;6.67;;;0.00;99.90;;;;;;6241118;23;20054;-87
2022/01/27 10:29:35;;;;;;;16.47;6.07;;;0.10;99.90;;;;;;6241051;23;20050;-88
2022/01/27 10:32:06;;;;;;;19.47;6.17;;;0.10;99.90;;;;;;6242906;23;20008;-88
2022/01/27 10:34:52;;;;;;;23.07;6.23;;;0.10;99.90;;;;;;6212309;23;20070;-88
2022/01/27 10:37:18;;;;;;;19.97;5.67;;;0.20;99.90;;;;;;6220276;23;20004;-88
2022/01/27 10:39:47;;;;;;;20.90;6.00;;;0.20;99.90;;;;;;6242449;23;20072;-88
2022/01/27 10:42:13;;;;;;;17.40;5.67;;;0.20;99.90;;;;;;6242777;23;20028;-87
2022/01/27 10:44:47;;;;;;;18.90;6.93;;;0.20;99.90;;;;;;6241534;23;20004;-88
2022/01/27 10:47:21;;;;;;;15.30;5.63;;;0.20;99.90;;;;;;6216101;23;20008;-88
2022/01/27 10:49:54;;;;;;;21.43;6.80;;;0.30;99.90;;;;;;6214670;23;20008;-88
2022/01/27 10:55:00;;;;;;;17.00;5.10;;;0.30;99.90;;;;;;6253218;23;20004;-88
2022/01/27 10:57:26;;;;;;;15.33;5.23;;;0.40;99.90;;;;;;6215896;23;20008;-89
2022/01/27 11:00:25;;;;;;;14.93;5.23;;;0.40;99.90;;;;;;6238957;23;20031;-88
2022/01/27 11:02:52;;;;;;;14.70;5.33;;;0.40;99.90;;;;;;6175649;23;20088;-88
2022/01/27 11:05:22;;;;;;;15.73;5.07;;;0.50;99.90;;;;;;6214842;23;20012;-89
2022/01/27 11:07:48;;;;;;;15.23;5.37;;;0.40;99.90;;;;;;6214797;23;20377;-88
2022/01/27 11:10:16;;;;;;;17.63;6.03;;;0.50;99.90;;;;;;6218692;23;20435;-87
2022/01/27 11:12:43;;;;;;;14.73;5.20;;;0.50;99.90;;;;;;6191946;23;20012;-88
2022/01/27 11:15:15;;;;;;;12.90;5.30;;;0.60;99.90;;;;;;6218096;23;20000;-88
2022/01/27 11:17:42;;;;;;;17.70;5.72;;;0.60;99.90;;;;;;6243139;23;20096;-88
2022/01/27 11:28:01;;;;;;;12.52;4.60;;;0.60;99.90;;;;;;6241868;23;20114;-88
2022/01/27 11:31:10;;;;;;;16.37;5.97;;;0.70;99.90;;;;;;6242055;23;20004;-88
2022/01/27 11:33:36;;;;;;;15.23;6.07;;;0.70;99.90;;;;;;6155275;23;20028;-87
2022/01/27 11:36:06;;;;;;;13.90;5.57;;;0.70;99.90;;;;;;6241838;23;20008;-87
2022/01/27 11:38:31;;;;;;;14.97;4.87;;;0.70;99.90;;;;;;6216663;23;20074;-87
2022/01/27 11:40:57;;;;;;;16.00;4.60;;;0.70;99.90;;;;;;6242528;23;20374;-88
2022/01/27 11:43:33;;;;;;;15.37;4.63;;;0.70;99.90;;;;;;6244041;23;20622;-87
2022/01/27 11:46:17;;;;;;;14.73;4.90;;;0.80;99.90;;;;;;6251656;23;20443;-87
2022/01/27 11:48:42;;;;;;;14.23;5.30;;;0.90;99.90;;;;;;6241926;23;20451;-88
2022/01/27 11:51:13;;;;;;;14.20;5.30;;;0.80;99.90;;;;;;6242612;23;20004;-87
2022/01/27 11:53:50;;;;;;;14.00;4.87;;;0.90;99.90;;;;;;6217572;23;20000;-87
2022/01/27 11:56:28;;;;;;;11.93;4.43;;;0.90;99.90;;;;;;6244305;23;20377;-87
2022/01/27 11:58:56;;;;;;;14.40;5.27;;;1.00;99.90;;;;;;6216329;23;20087;-87
2022/01/27 12:01:26;;;;;;;10.00;3.70;;;1.00;99.90;;;;;;6244200;23;20126;-86
2022/01/27 12:04:07;;;;;;;14.13;5.23;;;1.00;99.90;;;;;;6243684;23;20465;-88
2022/01/27 12:06:38;;;;;;;10.77;3.93;;;1.00;99.90;;;;;;6217223;23;20079;-88
2022/01/27 12:09:19;;;;;;;11.87;4.00;;;1.10;99.90;;;;;;6243860;23;20004;-88
2022/01/27 12:11:56;;;;;;;13.00;4.57;;;1.20;99.90;;;;;;6216349;23;20346;-87
2022/01/27 12:14:48;;;;;;;12.50;3.83;;;1.20;99.90;;;;;;6216940;23;20030;-87
2022/01/27 12:17:15;;;;;;;11.32;4.20;;;1.30;99.90;;;;;;6202644;23;20443;-87
2022/01/27 12:20:02;;;;;;;10.63;3.70;;;1.30;99.90;;;;;;6213210;23;20093;-87
2022/01/27 12:22:42;;;;;;;12.27;3.90;;;1.40;99.90;;;;;;6241545;23;20070;-87
2022/01/27 12:25:08;;;;;;;8.20;3.17;;;1.40;99.90;;;;;;6243733;23;20011;-87
2022/01/27 12:27:33;;;;;;;11.40;3.30;;;1.40;99.90;;;;;;6242372;23;20028;-87
2022/01/27 12:30:00;;;;;;;11.93;4.83;;;1.40;99.90;;;;;;6241833;23;20023;-87
2022/01/27 12:32:30;;;;;;;13.77;4.90;;;1.50;99.90;;;;;;6243419;23;20011;-86
2022/01/27 12:35:00;;;;;;;12.00;5.07;;;1.60;99.90;;;;;;6242568;23;20042;-87
2022/01/27 12:37:36;;;;;;;12.67;5.23;;;1.50;99.90;;;;;;6245072;23;20033;-87
2022/01/27 12:40:16;;;;;;;21.63;5.03;;;1.50;99.90;;;;;;6244291;23;20000;-86
2022/01/27 12:42:58;;;;;;;13.33;4.50;;;1.40;99.90;;;;;;6244595;23;20004;-87
2022/01/27 12:45:28;;;;;;;13.30;4.80;;;1.50;99.90;;;;;;6243612;23;20423;-86
2022/01/27 12:47:54;;;;;;;10.23;4.03;;;1.40;99.90;;;;;;6216235;23;20012;-87
2022/01/27 12:50:23;;;;;;;11.57;4.20;;;1.40;99.90;;;;;;6216297;23;20094;-87
2022/01/27 12:52:57;;;;;;;17.07;4.80;;;1.50;99.90;;;;;;6217216;23;20422;-87
2022/01/27 12:55:29;;;;;;;8.93;3.47;;;1.70;99.90;;;;;;6216444;23;20046;-87
2022/01/27 12:57:56;;;;;;;14.38;5.15;;;1.60;99.90;;;;;;6211986;23;20008;-87
2022/01/27 13:00:23;;;;;;;11.63;4.53;;;1.70;99.90;;;;;;6241210;23;20434;-86
2022/01/27 13:02:49;;;;;;;13.10;5.20;;;1.80;99.90;;;;;;6216035;23;20015;-87
2022/01/27 13:05:14;;;;;;;14.77;5.30;;;1.80;99.90;;;;;;6240737;23;20004;-87
2022/01/27 13:07:42;;;;;;;12.40;4.47;;;1.90;99.90;;;;;;6241403;23;20079;-87
2022/01/27 13:10:14;;;;;;;13.03;4.90;;;1.90;99.90;;;;;;6242475;23;20012;-86
2022/01/27 13:12:50;;;;;;;15.02;5.25;;;2.00;99.90;;;;;;6216298;23;20286;-87
2022/01/27 13:15:22;;;;;;;10.80;4.70;;;2.00;99.90;;;;;;6241742;23;20012;-87
2022/01/27 13:17:53;;;;;;;10.27;3.40;;;2.00;99.90;;;;;;6215719;23;20062;-87
2022/01/27 13:23:11;;;;;;;14.50;5.00;;;2.10;99.90;;;;;;6252163;23;20079;-87
2022/01/27 13:25:41;;;;;;;15.43;4.60;;;2.10;99.90;;;;;;6216352;23;20019;-87
2022/01/27 13:28:19;;;;;;;17.83;5.27;;;2.20;99.90;;;;;;6217292;23;20058;-88
2022/01/27 13:30:46;;;;;;;13.70;5.40;;;2.20;99.90;;;;;;6244283;23;19996;-88
2022/01/27 13:33:14;;;;;;;9.57;3.63;;;2.30;99.90;;;;;;6243930;23;20054;-87
2022/01/27 13:35:40;;;;;;;13.53;5.17;;;2.20;99.90;;;;;;6217390;23;20074;-88
2022/01/27 13:38:22;;;;;;;11.00;4.20;;;2.20;99.90;;;;;;6245521;23;20494;-88
2022/01/27 13:43:41;;;;;;;14.23;4.87;;;2.20;99.90;;;;;;6244778;23;20351;-88
2022/01/27 13:46:08;;;;;;;10.57;4.10;;;2.30;99.90;;;;;;6242976;23;20020;-87
2022/01/27 13:48:46;;;;;;;14.83;4.37;;;2.30;99.90;;;;;;6218980;23;20332;-89
2022/01/27 13:51:22;;;;;;;12.33;4.07;;;2.30;99.90;;;;;;6217486;23;20008;-87